sensor_id;sensor_type;location;lat;lon;timestamp;pressure;altitude;pressure_sealevel;temperature;humidity
6435;BME280;3250;42.694;23.278;2023-02-19T00:01:40;95138.06;;;7.04;63.50
6435;BME280;3250;42.694;23.278;2023-02-19T00:06:35;95132.56;;;6.84;64.95
6435;BME280;3250;42.694;23.278;2023-02-19T00:09:02;95129.22;;;6.75;65.17
6435;BME280;3250;42.694;23.278;2023-02-19T00:11:30;95115.25;;;6.68;65.63
6435;BME280;3250;42.694;23.278;2023-02-19T00:13:58;95098.50;;;6.63;65.35
6435;BME280;3250;42.694;23.278;2023-02-19T00:16:26;95114.19;;;6.63;65.98
6435;BME280;3250;42.694;23.278;2023-02-19T00:18:53;95116.63;;;6.64;65.96
6435;BME280;3250;42.694;23.278;2023-02-19T00:21:19;95084.59;;;6.48;66.37
6435;BME280;3250;42.694;23.278;2023-02-19T00:23:57;95112.19;;;6.50;66.74
6435;BME280;3250;42.694;23.278;2023-02-19T00:26:23;95082.69;;;6.27;66.66
6435;BME280;3250;42.694;23.278;2023-02-19T00:28:49;95094.28;;;6.24;67.45
6435;BME280;3250;42.694;23.278;2023-02-19T00:31:16;95103.94;;;6.24;67.40
6435;BME280;3250;42.694;23.278;2023-02-19T00:33:43;95098.03;;;6.30;67.21
6435;BME280;3250;42.694;23.278;2023-02-19T00:36:09;95108.34;;;6.23;67.32
6435;BME280;3250;42.694;23.278;2023-02-19T00:38:36;95106.88;;;6.06;68.34
6435;BME280;3250;42.694;23.278;2023-02-19T00:41:02;95090.50;;;6.12;68.48
6435;BME280;3250;42.694;23.278;2023-02-19T00:43:58;95080.31;;;6.17;68.39
6435;BME280;3250;42.694;23.278;2023-02-19T00:46:28;95085.13;;;6.28;67.93
6435;BME280;3250;42.694;23.278;2023-02-19T00:48:55;95072.41;;;6.40;67.17
6435;BME280;3250;42.694;23.278;2023-02-19T00:51:23;95079.09;;;6.42;67.24
6435;BME280;3250;42.694;23.278;2023-02-19T00:53:49;95070.44;;;6.42;67.14
6435;BME280;3250;42.694;23.278;2023-02-19T00:56:15;95042.28;;;6.15;67.44
6435;BME280;3250;42.694;23.278;2023-02-19T00:58:40;95026.97;;;6.12;67.21
6435;BME280;3250;42.694;23.278;2023-02-19T01:01:06;95072.22;;;6.27;67.70
6435;BME280;3250;42.694;23.278;2023-02-19T01:03:33;95070.78;;;6.24;67.60
6435;BME280;3250;42.694;23.278;2023-02-19T01:05:58;95076.91;;;6.31;67.60
6435;BME280;3250;42.694;23.278;2023-02-19T01:08:24;95021.66;;;6.05;67.71
6435;BME280;3250;42.694;23.278;2023-02-19T01:10:49;95052.03;;;6.35;67.45
6435;BME280;3250;42.694;23.278;2023-02-19T01:13:15;95066.81;;;6.43;67.99
6435;BME280;3250;42.694;23.278;2023-02-19T01:15:41;95060.59;;;6.44;67.54
6435;BME280;3250;42.694;23.278;2023-02-19T01:18:06;95012.00;;;6.35;67.08
6435;BME280;3250;42.694;23.278;2023-02-19T01:20:32;95046.53;;;6.60;65.99
6435;BME280;3250;42.694;23.278;2023-02-19T01:22:57;95068.16;;;6.68;66.34
6435;BME280;3250;42.694;23.278;2023-02-19T01:25:23;95062.13;;;6.68;66.32
6435;BME280;3250;42.694;23.278;2023-02-19T01:27:48;95045.47;;;6.39;66.71
6435;BME280;3250;42.694;23.278;2023-02-19T01:30:14;95043.19;;;6.51;66.58
6435;BME280;3250;42.694;23.278;2023-02-19T01:32:39;95080.44;;;6.68;66.48
6435;BME280;3250;42.694;23.278;2023-02-19T01:35:05;95087.38;;;6.61;66.27
6435;BME280;3250;42.694;23.278;2023-02-19T01:37:30;95064.47;;;6.33;67.13
6435;BME280;3250;42.694;23.278;2023-02-19T01:39:56;95083.41;;;6.35;67.45
6435;BME280;3250;42.694;23.278;2023-02-19T01:42:21;95095.66;;;6.35;67.71
6435;BME280;3250;42.694;23.278;2023-02-19T01:47:14;95102.63;;;6.42;67.43
6435;BME280;3250;42.694;23.278;2023-02-19T01:49:50;95095.59;;;6.43;66.90
6435;BME280;3250;42.694;23.278;2023-02-19T01:52:25;95099.00;;;6.29;67.46
6435;BME280;3250;42.694;23.278;2023-02-19T01:54:52;95098.03;;;6.07;68.14
6435;BME280;3250;42.694;23.278;2023-02-19T01:57:20;95115.25;;;6.39;67.77
6435;BME280;3250;42.694;23.278;2023-02-19T01:59:50;95106.28;;;6.33;67.15
6435;BME280;3250;42.694;23.278;2023-02-19T02:02:19;95108.09;;;6.18;68.04
6435;BME280;3250;42.694;23.278;2023-02-19T02:04:44;95113.03;;;6.13;68.05
6435;BME280;3250;42.694;23.278;2023-02-19T02:07:10;95112.31;;;6.19;68.13
6435;BME280;3250;42.694;23.278;2023-02-19T02:09:55;95121.25;;;6.25;67.50
6435;BME280;3250;42.694;23.278;2023-02-19T02:12:39;95110.44;;;6.28;67.28
6435;BME280;3250;42.694;23.278;2023-02-19T02:15:05;95085.97;;;6.06;68.26
6435;BME280;3250;42.694;23.278;2023-02-19T02:17:52;95101.97;;;6.26;67.89
6435;BME280;3250;42.694;23.278;2023-02-19T02:23:57;95107.03;;;6.42;66.73
6435;BME280;3250;42.694;23.278;2023-02-19T02:32:06;95118.38;;;6.49;66.35
6435;BME280;3250;42.694;23.278;2023-02-19T02:34:44;95120.22;;;6.49;66.38
6435;BME280;3250;42.694;23.278;2023-02-19T02:37:13;95093.41;;;6.32;66.20
6435;BME280;3250;42.694;23.278;2023-02-19T02:39:40;95123.34;;;6.44;66.45
6435;BME280;3250;42.694;23.278;2023-02-19T02:42:06;95068.41;;;6.15;66.50
6435;BME280;3250;42.694;23.278;2023-02-19T02:44:50;95113.16;;;6.34;66.58
6435;BME280;3250;42.694;23.278;2023-02-19T02:47:38;95121.97;;;6.33;66.75
6435;BME280;3250;42.694;23.278;2023-02-19T02:50:07;95111.59;;;6.25;66.86
6435;BME280;3250;42.694;23.278;2023-02-19T02:52:36;95126.47;;;6.25;66.97
6435;BME280;3250;42.694;23.278;2023-02-19T02:55:22;95119.34;;;6.19;66.98
6435;BME280;3250;42.694;23.278;2023-02-19T02:57:49;95116.09;;;6.17;67.20
6435;BME280;3250;42.694;23.278;2023-02-19T03:00:14;95069.97;;;5.86;67.36
6435;BME280;3250;42.694;23.278;2023-02-19T03:02:41;95105.28;;;6.05;67.32
6435;BME280;3250;42.694;23.278;2023-02-19T03:05:15;95122.03;;;6.11;67.32
6435;BME280;3250;42.694;23.278;2023-02-19T03:08:12;95132.50;;;6.11;67.28
6435;BME280;3250;42.694;23.278;2023-02-19T03:10:44;95128.97;;;6.03;67.53
6435;BME280;3250;42.694;23.278;2023-02-19T03:13:32;95098.56;;;5.80;67.67
6435;BME280;3250;42.694;23.278;2023-02-19T03:16:21;95123.66;;;5.89;68.50
6435;BME280;3250;42.694;23.278;2023-02-19T03:19:10;95115.94;;;5.73;69.25
6435;BME280;3250;42.694;23.278;2023-02-19T03:21:59;95121.47;;;5.78;69.18
6435;BME280;3250;42.694;23.278;2023-02-19T03:24:29;95125.97;;;5.84;69.02
6435;BME280;3250;42.694;23.278;2023-02-19T03:27:15;95130.56;;;5.82;69.28
6435;BME280;3250;42.694;23.278;2023-02-19T03:29:45;95137.75;;;5.80;69.60
6435;BME280;3250;42.694;23.278;2023-02-19T03:32:16;95146.59;;;5.79;69.66
6435;BME280;3250;42.694;23.278;2023-02-19T03:34:51;95156.97;;;5.87;68.78
6435;BME280;3250;42.694;23.278;2023-02-19T03:37:23;95150.13;;;5.86;68.82
6435;BME280;3250;42.694;23.278;2023-02-19T03:39:52;95149.78;;;5.89;68.75
6435;BME280;3250;42.694;23.278;2023-02-19T03:44:59;95156.41;;;5.77;69.16
6435;BME280;3250;42.694;23.278;2023-02-19T03:47:28;95158.03;;;5.78;68.88
6435;BME280;3250;42.694;23.278;2023-02-19T03:50:11;95157.84;;;5.79;68.60
6435;BME280;3250;42.694;23.278;2023-02-19T03:52:46;95151.16;;;5.77;68.65
6435;BME280;3250;42.694;23.278;2023-02-19T04:01:09;95171.34;;;5.91;68.15
6435;BME280;3250;42.694;23.278;2023-02-19T04:03:45;95168.03;;;5.97;67.52
6435;BME280;3250;42.694;23.278;2023-02-19T04:06:15;95173.38;;;6.03;67.20
6435;BME280;3250;42.694;23.278;2023-02-19T04:08:47;95173.97;;;6.14;66.86
6435;BME280;3250;42.694;23.278;2023-02-19T04:11:15;95173.69;;;6.23;66.39
6435;BME280;3250;42.694;23.278;2023-02-19T04:13:45;95179.88;;;6.30;66.37
6435;BME280;3250;42.694;23.278;2023-02-19T04:16:18;95173.38;;;6.41;65.30
6435;BME280;3250;42.694;23.278;2023-02-19T04:18:46;95153.44;;;6.25;65.26
6435;BME280;3250;42.694;23.278;2023-02-19T04:21:15;95172.56;;;6.40;65.43
6435;BME280;3250;42.694;23.278;2023-02-19T04:23:42;95185.03;;;6.53;64.75
6435;BME280;3250;42.694;23.278;2023-02-19T04:26:09;95183.50;;;6.59;64.79
6435;BME280;3250;42.694;23.278;2023-02-19T04:28:37;95186.25;;;6.65;64.87
6435;BME280;3250;42.694;23.278;2023-02-19T04:31:03;95119.03;;;6.36;63.96
6435;BME280;3250;42.694;23.278;2023-02-19T04:33:28;95162.72;;;6.80;64.14
6435;BME280;3250;42.694;23.278;2023-02-19T04:35:54;95188.34;;;6.99;63.73
6435;BME280;3250;42.694;23.278;2023-02-19T04:38:19;95158.38;;;6.87;63.34
6435;BME280;3250;42.694;23.278;2023-02-19T04:40:44;95191.94;;;7.13;63.29
6435;BME280;3250;42.694;23.278;2023-02-19T04:43:10;95169.03;;;7.00;63.06
6435;BME280;3250;42.694;23.278;2023-02-19T04:45:37;95192.84;;;7.20;62.83
6435;BME280;3250;42.694;23.278;2023-02-19T04:48:03;95197.47;;;7.33;62.41
6435;BME280;3250;42.694;23.278;2023-02-19T04:50:28;95196.09;;;7.37;62.32
6435;BME280;3250;42.694;23.278;2023-02-19T04:52:54;95203.47;;;7.48;61.63
6435;BME280;3250;42.694;23.278;2023-02-19T04:55:19;95202.66;;;7.47;61.55
6435;BME280;3250;42.694;23.278;2023-02-19T04:57:45;95197.78;;;7.44;61.88
6435;BME280;3250;42.694;23.278;2023-02-19T05:00:11;95195.25;;;7.51;61.06
6435;BME280;3250;42.694;23.278;2023-02-19T05:02:36;95201.75;;;7.55;60.94
6435;BME280;3250;42.694;23.278;2023-02-19T05:05:01;95208.16;;;7.67;60.55
6435;BME280;3250;42.694;23.278;2023-02-19T05:07:27;95160.50;;;7.42;61.01
6435;BME280;3250;42.694;23.278;2023-02-19T05:09:53;95179.16;;;7.54;60.71
6435;BME280;3250;42.694;23.278;2023-02-19T05:12:18;95208.69;;;7.77;59.91
6435;BME280;3250;42.694;23.278;2023-02-19T05:14:43;95208.09;;;7.82;59.75
6435;BME280;3250;42.694;23.278;2023-02-19T05:17:09;95207.19;;;7.89;59.44
6435;BME280;3250;42.694;23.278;2023-02-19T05:19:34;95203.84;;;7.95;59.11
6435;BME280;3250;42.694;23.278;2023-02-19T05:22:00;95152.44;;;7.58;59.32
6435;BME280;3250;42.694;23.278;2023-02-19T05:24:25;95183.88;;;7.80;59.90
6435;BME280;3250;42.694;23.278;2023-02-19T05:26:51;95214.19;;;8.04;59.17
6435;BME280;3250;42.694;23.278;2023-02-19T05:29:17;95196.44;;;8.06;58.56
6435;BME280;3250;42.694;23.278;2023-02-19T05:31:42;95201.91;;;8.25;58.79
6435;BME280;3250;42.694;23.278;2023-02-19T05:34:08;95212.41;;;8.47;57.98
6435;BME280;3250;42.694;23.278;2023-02-19T05:36:33;95213.38;;;8.67;58.14
6435;BME280;3250;42.694;23.278;2023-02-19T05:38:58;95178.84;;;8.63;56.60
6435;BME280;3250;42.694;23.278;2023-02-19T05:41:27;95226.81;;;9.06;56.97
6435;BME280;3250;42.694;23.278;2023-02-19T05:43:53;95219.44;;;9.23;55.59
6435;BME280;3250;42.694;23.278;2023-02-19T05:46:21;95217.53;;;9.45;55.26
6435;BME280;3250;42.694;23.278;2023-02-19T05:48:48;95215.44;;;9.68;54.98
6435;BME280;3250;42.694;23.278;2023-02-19T05:51:16;95224.81;;;9.97;54.07
6435;BME280;3250;42.694;23.278;2023-02-19T05:53:43;95208.94;;;10.18;53.53
6435;BME280;3250;42.694;23.278;2023-02-19T05:59:00;95242.59;;;11.22;52.04
6435;BME280;3250;42.694;23.278;2023-02-19T06:01:28;95237.78;;;11.70;50.62
6435;BME280;3250;42.694;23.278;2023-02-19T06:03:54;95255.22;;;12.29;48.02
6435;BME280;3250;42.694;23.278;2023-02-19T06:06:20;95249.78;;;12.87;47.91
6435;BME280;3250;42.694;23.278;2023-02-19T06:08:47;95243.81;;;13.66;46.20
6435;BME280;3250;42.694;23.278;2023-02-19T06:11:13;95242.78;;;14.33;44.46
6435;BME280;3250;42.694;23.278;2023-02-19T06:13:38;95266.88;;;15.03;42.92
6435;BME280;3250;42.694;23.278;2023-02-19T06:16:04;95271.06;;;15.45;41.80
6435;BME280;3250;42.694;23.278;2023-02-19T06:18:30;95273.97;;;15.67;41.56
6435;BME280;3250;42.694;23.278;2023-02-19T06:21:03;95266.13;;;15.61;40.92
6435;BME280;3250;42.694;23.278;2023-02-19T06:23:29;95274.31;;;15.47;41.18
6435;BME280;3250;42.694;23.278;2023-02-19T06:25:54;95248.78;;;15.12;41.84
6435;BME280;3250;42.694;23.278;2023-02-19T06:28:28;95275.75;;;15.08;41.77
6435;BME280;3250;42.694;23.278;2023-02-19T06:30:53;95278.97;;;14.99;42.00
6435;BME280;3250;42.694;23.278;2023-02-19T06:33:19;95276.78;;;14.96;41.41
6435;BME280;3250;42.694;23.278;2023-02-19T06:35:44;95274.81;;;14.91;41.95
6435;BME280;3250;42.694;23.278;2023-02-19T06:38:09;95247.16;;;14.87;41.77
6435;BME280;3250;42.694;23.278;2023-02-19T06:40:35;95248.66;;;15.06;41.28
6435;BME280;3250;42.694;23.278;2023-02-19T06:43:00;95236.94;;;15.37;40.83
6435;BME280;3250;42.694;23.278;2023-02-19T06:45:26;95268.38;;;16.15;39.14
6435;BME280;3250;42.694;23.278;2023-02-19T06:47:51;95271.50;;;16.81;38.02
6435;BME280;3250;42.694;23.278;2023-02-19T06:50:17;95286.84;;;17.57;36.93
6435;BME280;3250;42.694;23.278;2023-02-19T06:52:42;95261.00;;;17.91;35.44
6435;BME280;3250;42.694;23.278;2023-02-19T06:55:08;95283.34;;;18.72;34.75
6435;BME280;3250;42.694;23.278;2023-02-19T06:57:33;95269.16;;;19.52;33.39
6435;BME280;3250;42.694;23.278;2023-02-19T06:59:58;95285.88;;;20.27;31.75
6435;BME280;3250;42.694;23.278;2023-02-19T07:02:24;95292.56;;;20.97;30.79
6435;BME280;3250;42.694;23.278;2023-02-19T07:04:50;95288.88;;;21.54;29.37
6435;BME280;3250;42.694;23.278;2023-02-19T07:07:15;95303.59;;;22.17;27.92
6435;BME280;3250;42.694;23.278;2023-02-19T07:09:41;95292.97;;;23.15;27.27
6435;BME280;3250;42.694;23.278;2023-02-19T07:12:06;95290.88;;;24.09;25.62
6435;BME280;3250;42.694;23.278;2023-02-19T07:14:31;95296.44;;;25.27;24.08
6435;BME280;3250;42.694;23.278;2023-02-19T07:16:57;95300.00;;;26.38;23.07
6435;BME280;3250;42.694;23.278;2023-02-19T07:19:22;95298.69;;;26.90;22.14
6435;BME280;3250;42.694;23.278;2023-02-19T07:21:48;95282.16;;;27.55;21.60
6435;BME280;3250;42.694;23.278;2023-02-19T07:24:13;95279.53;;;28.57;20.71
6435;BME280;3250;42.694;23.278;2023-02-19T07:26:38;95281.91;;;29.15;19.67
6435;BME280;3250;42.694;23.278;2023-02-19T07:29:04;95286.03;;;30.16;19.41
6435;BME280;3250;42.694;23.278;2023-02-19T07:31:29;95279.16;;;30.94;17.92
6435;BME280;3250;42.694;23.278;2023-02-19T07:33:55;95280.72;;;31.25;17.79
6435;BME280;3250;42.694;23.278;2023-02-19T07:36:22;95279.94;;;31.24;17.95
6435;BME280;3250;42.694;23.278;2023-02-19T07:38:53;95269.38;;;31.43;18.02
6435;BME280;3250;42.694;23.278;2023-02-19T07:41:19;95271.25;;;31.10;17.33
6435;BME280;3250;42.694;23.278;2023-02-19T07:43:45;95236.56;;;30.39;17.83
6435;BME280;3250;42.694;23.278;2023-02-19T07:46:12;95276.94;;;30.03;18.49
6435;BME280;3250;42.694;23.278;2023-02-19T07:48:39;95260.19;;;29.15;19.15
6435;BME280;3250;42.694;23.278;2023-02-19T07:51:07;95260.06;;;28.54;19.83
6435;BME280;3250;42.694;23.278;2023-02-19T07:53:34;95255.13;;;27.86;20.71
6435;BME280;3250;42.694;23.278;2023-02-19T07:56:01;95257.63;;;27.16;20.84
6435;BME280;3250;42.694;23.278;2023-02-19T07:58:27;95240.09;;;26.63;21.94
6435;BME280;3250;42.694;23.278;2023-02-19T08:00:52;95219.28;;;26.09;22.54
6435;BME280;3250;42.694;23.278;2023-02-19T08:03:18;95250.66;;;26.05;22.39
6435;BME280;3250;42.694;23.278;2023-02-19T08:05:43;95248.72;;;25.78;23.49
6435;BME280;3250;42.694;23.278;2023-02-19T08:08:11;95252.44;;;25.50;23.37
6435;BME280;3250;42.694;23.278;2023-02-19T08:10:37;95232.38;;;25.05;24.07
6435;BME280;3250;42.694;23.278;2023-02-19T08:13:21;95245.78;;;24.67;24.59
6435;BME280;3250;42.694;23.278;2023-02-19T08:15:54;95243.91;;;24.25;25.30
6435;BME280;3250;42.694;23.278;2023-02-19T08:18:31;95227.81;;;23.67;25.55
6435;BME280;3250;42.694;23.278;2023-02-19T08:20:57;95245.97;;;23.13;25.97
6435;BME280;3250;42.694;23.278;2023-02-19T08:23:25;95245.50;;;22.51;26.63
6435;BME280;3250;42.694;23.278;2023-02-19T08:25:52;95244.88;;;21.95;28.04
6435;BME280;3250;42.694;23.278;2023-02-19T08:28:18;95245.75;;;21.60;28.26
6435;BME280;3250;42.694;23.278;2023-02-19T08:30:45;95244.94;;;21.55;28.67
6435;BME280;3250;42.694;23.278;2023-02-19T08:33:13;95245.50;;;21.41;29.05
6435;BME280;3250;42.694;23.278;2023-02-19T08:35:39;95234.75;;;20.96;28.97
6435;BME280;3250;42.694;23.278;2023-02-19T08:38:06;95240.38;;;20.99;29.71
6435;BME280;3250;42.694;23.278;2023-02-19T08:40:32;95227.78;;;20.95;30.07
6435;BME280;3250;42.694;23.278;2023-02-19T08:43:05;95241.16;;;21.05;30.38
6435;BME280;3250;42.694;23.278;2023-02-19T08:45:31;95230.50;;;21.20;29.99
6435;BME280;3250;42.694;23.278;2023-02-19T08:47:57;95234.50;;;21.38;29.29
6435;BME280;3250;42.694;23.278;2023-02-19T08:50:22;95226.47;;;21.48;29.92
6435;BME280;3250;42.694;23.278;2023-02-19T08:52:48;95176.38;;;21.03;29.16
6435;BME280;3250;42.694;23.278;2023-02-19T08:55:13;95199.13;;;21.10;29.87
6435;BME280;3250;42.694;23.278;2023-02-19T08:57:39;95214.69;;;21.34;29.88
6435;BME280;3250;42.694;23.278;2023-02-19T09:00:05;95222.16;;;21.57;29.70
6435;BME280;3250;42.694;23.278;2023-02-19T09:02:31;95196.13;;;21.73;29.42
6435;BME280;3250;42.694;23.278;2023-02-19T09:04:56;95206.00;;;22.03;28.85
6435;BME280;3250;42.694;23.278;2023-02-19T09:07:23;95191.81;;;21.92;28.81
6435;BME280;3250;42.694;23.278;2023-02-19T09:09:48;95194.84;;;21.55;29.97
6435;BME280;3250;42.694;23.278;2023-02-19T09:12:14;95204.25;;;21.32;30.17
6435;BME280;3250;42.694;23.278;2023-02-19T09:14:40;95203.69;;;21.45;30.26
6435;BME280;3250;42.694;23.278;2023-02-19T09:17:06;95182.25;;;21.61;30.71
6435;BME280;3250;42.694;23.278;2023-02-19T09:19:33;95189.47;;;21.70;30.14
6435;BME280;3250;42.694;23.278;2023-02-19T09:21:59;95177.09;;;21.74;30.12
6435;BME280;3250;42.694;23.278;2023-02-19T09:24:26;95187.84;;;21.69;30.95
6435;BME280;3250;42.694;23.278;2023-02-19T09:26:53;95171.53;;;21.61;31.05
6435;BME280;3250;42.694;23.278;2023-02-19T09:29:19;95194.84;;;21.50;30.79
6435;BME280;3250;42.694;23.278;2023-02-19T09:31:45;95196.50;;;21.26;32.17
6435;BME280;3250;42.694;23.278;2023-02-19T09:34:11;95165.13;;;20.96;31.90
6435;BME280;3250;42.694;23.278;2023-02-19T09:36:39;95157.38;;;20.94;32.07
6435;BME280;3250;42.694;23.278;2023-02-19T09:39:06;95187.63;;;20.90;32.71
6435;BME280;3250;42.694;23.278;2023-02-19T09:41:34;95142.09;;;20.69;32.46
6435;BME280;3250;42.694;23.278;2023-02-19T09:44:05;95155.50;;;20.69;31.56
6435;BME280;3250;42.694;23.278;2023-02-19T09:46:44;95179.81;;;20.68;33.00
6435;BME280;3250;42.694;23.278;2023-02-19T09:49:14;95154.81;;;20.17;32.09
6435;BME280;3250;42.694;23.278;2023-02-19T09:51:46;95174.88;;;20.19;33.02
6435;BME280;3250;42.694;23.278;2023-02-19T09:54:20;95168.69;;;20.09;32.92
6435;BME280;3250;42.694;23.278;2023-02-19T09:56:47;95159.09;;;20.18;32.80
6435;BME280;3250;42.694;23.278;2023-02-19T09:59:22;95152.41;;;20.10;31.85
6435;BME280;3250;42.694;23.278;2023-02-19T10:01:53;95144.94;;;20.12;31.78
6435;BME280;3250;42.694;23.278;2023-02-19T10:04:20;95117.00;;;19.78;32.53
6435;BME280;3250;42.694;23.278;2023-02-19T10:06:46;95138.69;;;19.86;32.45
6435;BME280;3250;42.694;23.278;2023-02-19T10:09:21;95121.59;;;19.87;32.45
6435;BME280;3250;42.694;23.278;2023-02-19T10:11:48;95118.63;;;19.84;32.18
6435;BME280;3250;42.694;23.278;2023-02-19T10:14:21;95125.53;;;19.75;32.52
6435;BME280;3250;42.694;23.278;2023-02-19T10:16:51;95080.34;;;19.58;33.67
6435;BME280;3250;42.694;23.278;2023-02-19T10:19:16;95081.41;;;19.57;32.52
6435;BME280;3250;42.694;23.278;2023-02-19T10:21:42;95103.88;;;19.61;33.01
6435;BME280;3250;42.694;23.278;2023-02-19T10:24:15;95097.97;;;19.54;32.71
6435;BME280;3250;42.694;23.278;2023-02-19T10:26:44;95072.22;;;19.43;32.81
6435;BME280;3250;42.694;23.278;2023-02-19T10:29:10;95049.41;;;19.15;32.76
6435;BME280;3250;42.694;23.278;2023-02-19T10:31:35;95065.72;;;19.18;33.32
6435;BME280;3250;42.694;23.278;2023-02-19T10:34:01;95063.81;;;19.14;33.02
6435;BME280;3250;42.694;23.278;2023-02-19T10:36:35;95072.63;;;19.14;33.81
6435;BME280;3250;42.694;23.278;2023-02-19T10:39:51;95063.75;;;19.04;33.47
6435;BME280;3250;42.694;23.278;2023-02-19T10:41:52;95056.16;;;18.85;33.72
6435;BME280;3250;42.694;23.278;2023-02-19T10:44:23;95055.63;;;18.83;33.82
6435;BME280;3250;42.694;23.278;2023-02-19T10:46:52;95031.25;;;18.70;34.73
6435;BME280;3250;42.694;23.278;2023-02-19T10:49:31;95038.28;;;18.86;34.58
6435;BME280;3250;42.694;23.278;2023-02-19T10:52:10;95035.13;;;18.89;34.27
6435;BME280;3250;42.694;23.278;2023-02-19T10:54:42;95023.03;;;18.76;33.70
6435;BME280;3250;42.694;23.278;2023-02-19T10:57:15;95028.59;;;18.70;34.25
6435;BME280;3250;42.694;23.278;2023-02-19T10:59:53;95021.63;;;18.69;34.24
6435;BME280;3250;42.694;23.278;2023-02-19T11:02:21;95012.59;;;18.70;33.97
6435;BME280;3250;42.694;23.278;2023-02-19T11:07:49;94999.25;;;18.70;34.97
6435;BME280;3250;42.694;23.278;2023-02-19T11:12:49;94985.91;;;18.70;33.58
6435;BME280;3250;42.694;23.278;2023-02-19T11:15:42;94987.03;;;18.79;33.71
6435;BME280;3250;42.694;23.278;2023-02-19T11:20:38;94984.41;;;18.89;33.62
6435;BME280;3250;42.694;23.278;2023-02-19T11:23:16;94935.78;;;18.67;33.55
6435;BME280;3250;42.694;23.278;2023-02-19T11:25:49;94969.53;;;18.98;33.82
6435;BME280;3250;42.694;23.278;2023-02-19T11:28:31;94963.13;;;19.04;33.72
6435;BME280;3250;42.694;23.278;2023-02-19T11:31:21;94957.81;;;19.04;34.13
6435;BME280;3250;42.694;23.278;2023-02-19T11:33:58;94951.44;;;19.10;32.78
6435;BME280;3250;42.694;23.278;2023-02-19T11:36:34;94951.16;;;19.07;32.48
6435;BME280;3250;42.694;23.278;2023-02-19T11:39:18;94926.53;;;18.95;32.90
6435;BME280;3250;42.694;23.278;2023-02-19T11:42:04;94920.09;;;18.85;32.87
6435;BME280;3250;42.694;23.278;2023-02-19T11:50:52;94928.44;;;18.99;33.36
6435;BME280;3250;42.694;23.278;2023-02-19T11:58:37;94918.06;;;19.08;31.42
6435;BME280;3250;42.694;23.278;2023-02-19T12:06:44;94907.09;;;18.99;31.31
6435;BME280;3250;42.694;23.278;2023-02-19T12:09:18;94898.56;;;19.02;31.84
6435;BME280;3250;42.694;23.278;2023-02-19T12:25:52;94868.91;;;18.89;30.75
6435;BME280;3250;42.694;23.278;2023-02-19T12:36:42;94843.53;;;18.81;30.89
6435;BME280;3250;42.694;23.278;2023-02-19T12:41:58;94832.34;;;18.89;30.87
6435;BME280;3250;42.694;23.278;2023-02-19T12:44:44;94840.06;;;18.75;31.38
6435;BME280;3250;42.694;23.278;2023-02-19T12:47:17;94824.06;;;18.80;31.91
6435;BME280;3250;42.694;23.278;2023-02-19T12:49:49;94818.22;;;18.89;30.50
6435;BME280;3250;42.694;23.278;2023-02-19T12:52:31;94806.22;;;18.91;31.21
6435;BME280;3250;42.694;23.278;2023-02-19T12:55:06;94811.00;;;18.89;30.36
6435;BME280;3250;42.694;23.278;2023-02-19T12:57:38;94790.19;;;18.76;30.82
6435;BME280;3250;42.694;23.278;2023-02-19T13:02:41;94793.13;;;18.79;31.10
6435;BME280;3250;42.694;23.278;2023-02-19T13:05:23;94785.66;;;18.76;31.36
6435;BME280;3250;42.694;23.278;2023-02-19T13:08:02;94794.50;;;18.92;31.06
6435;BME280;3250;42.694;23.278;2023-02-19T13:10:33;94780.63;;;19.00;31.54
6435;BME280;3250;42.694;23.278;2023-02-19T13:13:05;94675.66;;;18.34;30.50
6435;BME280;3250;42.694;23.278;2023-02-19T13:15:42;94627.34;;;18.00;30.76
6435;BME280;3250;42.694;23.278;2023-02-19T13:18:26;94705.09;;;18.59;30.25
6435;BME280;3250;42.694;23.278;2023-02-19T13:20:54;94753.66;;;18.97;30.18
6435;BME280;3250;42.694;23.278;2023-02-19T13:23:30;94721.66;;;18.76;30.49
6435;BME280;3250;42.694;23.278;2023-02-19T13:37:33;94737.91;;;18.80;30.52
6435;BME280;3250;42.694;23.278;2023-02-19T13:40:05;94709.34;;;18.65;30.32
6435;BME280;3250;42.694;23.278;2023-02-19T13:42:53;94736.84;;;18.86;30.54
6435;BME280;3250;42.694;23.278;2023-02-19T13:45:23;94682.41;;;18.62;30.27
6435;BME280;3250;42.694;23.278;2023-02-19T13:50:29;94597.53;;;18.03;30.97
6435;BME280;3250;42.694;23.278;2023-02-19T13:52:59;94619.88;;;18.02;30.57
6435;BME280;3250;42.694;23.278;2023-02-19T14:03:54;94651.56;;;17.93;31.46
6435;BME280;3250;42.694;23.278;2023-02-19T14:09:48;94714.03;;;18.23;31.77
6435;BME280;3250;42.694;23.278;2023-02-19T14:14:49;94619.22;;;17.64;32.24
6435;BME280;3250;42.694;23.278;2023-02-19T14:27:46;94591.03;;;17.73;31.01
6435;BME280;3250;42.694;23.278;2023-02-19T14:30:13;94526.97;;;17.28;30.86
6435;BME280;3250;42.694;23.278;2023-02-19T14:32:40;94592.13;;;17.78;31.59
6435;BME280;3250;42.694;23.278;2023-02-19T14:35:20;94677.53;;;18.38;31.80
6435;BME280;3250;42.694;23.278;2023-02-19T14:37:50;94657.78;;;18.34;32.28
6435;BME280;3250;42.694;23.278;2023-02-19T14:40:38;94589.50;;;17.93;32.44
6435;BME280;3250;42.694;23.278;2023-02-19T14:43:13;94675.94;;;18.42;31.82
6435;BME280;3250;42.694;23.278;2023-02-19T14:45:52;94668.19;;;18.36;31.77
6435;BME280;3250;42.694;23.278;2023-02-19T14:51:44;94599.63;;;17.96;31.78
6435;BME280;3250;42.694;23.278;2023-02-19T14:53:44;94601.75;;;17.94;31.81
6435;BME280;3250;42.694;23.278;2023-02-19T14:56:32;94521.19;;;17.56;32.17
6435;BME280;3250;42.694;23.278;2023-02-19T14:59:20;94661.81;;;18.47;32.01
6435;BME280;3250;42.694;23.278;2023-02-19T15:01:59;94613.56;;;18.23;32.04
6435;BME280;3250;42.694;23.278;2023-02-19T15:04:28;94661.03;;;18.46;31.93
6435;BME280;3250;42.694;23.278;2023-02-19T15:06:56;94656.22;;;18.38;31.94
6435;BME280;3250;42.694;23.278;2023-02-19T15:09:30;94525.19;;;17.49;31.55
6435;BME280;3250;42.694;23.278;2023-02-19T15:11:57;94664.44;;;18.27;31.93
6435;BME280;3250;42.694;23.278;2023-02-19T15:14:24;94514.47;;;17.28;32.75
6435;BME280;3250;42.694;23.278;2023-02-19T15:17:04;94651.88;;;18.12;32.27
6435;BME280;3250;42.694;23.278;2023-02-19T15:19:32;94662.81;;;18.05;32.58
6435;BME280;3250;42.694;23.278;2023-02-19T15:22:03;94605.06;;;17.59;33.13
6435;BME280;3250;42.694;23.278;2023-02-19T15:24:29;94657.94;;;17.92;32.67
6435;BME280;3250;42.694;23.278;2023-02-19T15:26:55;94575.19;;;17.37;33.72
6435;BME280;3250;42.694;23.278;2023-02-19T15:29:23;94520.97;;;16.95;34.31